Latest Coastal Weather Observations for Gove Airport

IDD60701

Issued at 8:11 pm CST Wednesday 1 April 2015 (issued every 10 minutes, with the page automatically refreshed every 10 minutes)

About coastal observations | Map of coastal stations | Coastal observations for NT | Marine services | Other Formats
Station Details ID: 014508 Name: GOVE AIRPORT Lat: -12.27 Lon: 136.82 Height: 51.6 m
Data from the previous 72 hours. | See also: Recent months at Gove Airport
Date/Time
CST
Temp

°C
Wind Pressure Rain
since 9am
mm
Weather Cloud Vis
km
Sea
Height
m
Swell
Dir
 
Speed
knots
Gust
knots
hPa Trend Height
m
Period
s
Dir
01/08:00pm 27.7 SE 4 5 1010.4 - 0.0 - Mostly clear 10 - - - -
01/07:30pm 27.8 SE 5 7 1010.2 - 0.0 - Mostly clear 10 - - - -
01/07:00pm 28.0 SSE 5 6 1009.7 - 0.0 - Mostly clear 10 - - - -
01/06:30pm 28.6 ESE 7 8 1009.6 - 0.0 - Mostly clear 10 - - - -
01/06:00pm 29.2 ESE 8 10 1008.8 F 0.0 Fine Mostly cloudy 25 - - - -
01/05:30pm 29.5 ESE 9 11 1009.2 - 0.0 - Mostly clear 10 - - - -
01/05:00pm 29.7 ESE 11 14 1009.0 - 0.0 - Mostly clear 10 - - - -
01/04:30pm 30.6 ESE 9 13 1008.9 - 0.0 - Mostly clear 10 - - - -
01/04:00pm 31.2 E 10 16 1009.1 - 0.0 - Mostly clear 10 - - - -
01/03:30pm 30.5 E 10 13 1009.4 - 0.0 - Mostly clear 10 - - - -
01/03:00pm 30.5 E 9 13 1009.0 F 0.0 Fine Mostly cloudy 24 - - - -
01/02:30pm 30.3 E 9 12 1009.5 - 0.0 - Mostly clear 10 - - - -
01/02:00pm 30.5 E 9 13 1009.8 - 0.0 - Mostly clear 10 - - - -
01/01:30pm 30.6 ESE 9 13 1010.0 - 0.0 - Partly cloudy 10 - - - -
01/01:00pm 29.8 E 8 11 1010.6 - 0.0 - Mostly clear 10 - - - -
01/12:30pm 29.9 E 11 13 1011.1 - 0.0 Showers Mostly clear 10 - - - -
01/12:00pm 31.3 ENE 10 14 1010.9 F 0.0 Distant precip. Mostly cloudy 23 - - - -
01/11:30am 31.5 E 12 16 1011.8 - 0.0 - Mostly clear 10 - - - -
01/11:00am 31.5 E 9 15 1012.1 - 0.0 - Mostly clear 10 - - - -
01/10:30am 31.1 ENE 10 12 1012.3 - 0.0 - - 10 - - - -
01/10:00am 30.9 ESE 9 13 1012.6 - 0.0 - Mostly clear 10 - - - -
01/08:30am 28.8 ESE 6 9 1012.5 - 0.0 - Mostly clear 10 - - - -
01/07:00am 24.7 SSE 3 4 1011.5 - 0.0 - Mostly clear 10 - - - -
01/06:30am 23.8 S 3 4 1011.1 - 0.0 - Mostly clear 10 - - - -
01/06:00am 23.8 CALM 0 0 1010.4 R 0.0 Haze Partly cloudy 14 - - - -
01/05:30am 23.7 CALM 0 0 1010.7 - 0.0 - - 10 - - - -
01/05:00am 23.8 CALM 0 0 1010.5 - 0.0 - - 10 - - - -
01/04:30am 23.9 CALM 0 0 1010.3 - 0.0 - - 10 - - - -
01/04:00am 23.7 CALM 0 0 1010.3 - 0.0 - - 10 - - - -
01/03:30am 23.9 SSW 1 3 1010.1 - 0.0 - - 10 - - - -
01/03:00am 24.5 S 4 5 1009.9 - 0.0 - - 10 - - - -
01/02:30am 24.8 SE 1 5 1010.4 - 0.0 - - 10 - - - -
01/02:00am 24.1 CALM 0 0 1010.7 - 0.0 - - 10 - - - -
01/01:30am 24.2 CALM 0 0 1010.9 - 0.0 - - 10 - - - -
01/01:00am 25.1 ESE 3 4 1011.2 - 0.0 - Partly cloudy 10 - - - -
01/12:30am 25.1 CALM 0 0 1011.6 - 0.0 - - 10 - - - -
01/12:00am 25.0 CALM 0 0 1011.5 - 0.0 - Mostly clear 10 - - - -
 
Date/Time
CST
Temp

°C
Wind Pressure Rain
since 9am
mm
Weather Cloud Vis
km
Sea
Height
m
Swell
Dir
 
Speed
knots
Gust
knots
hPa Trend Height
m
Period
s
Dir
31/11:30pm 25.7 SSE 3 4 1012.1 - 0.0 - Partly cloudy 10 - - - -
31/11:00pm 25.8 SE 4 5 1012.2 - 0.0 - - 10 - - - -
31/10:30pm 26.0 SSE 5 6 1012.3 - 0.0 - - 10 - - - -
31/10:00pm 26.3 SE 3 5 1012.5 - 0.0 - Mostly clear 10 - - - -
31/09:30pm 26.4 SE 5 7 1012.3 - 0.0 - Mostly clear 10 - - - -
31/09:00pm 26.4 SSE 5 6 1011.6 F 0.0 Fine Mostly clear 24 - - - -
31/08:30pm 26.3 SSE 5 7 1011.9 - 0.0 - Mostly clear 10 - - - -
31/08:00pm 26.5 SE 5 6 1011.6 - 0.0 - - 10 - - - -
31/07:30pm 26.9 SSE 5 6 1011.4 - 0.0 - Mostly clear 10 - - - -
31/07:00pm 27.5 SSE 5 7 1011.2 - 0.0 - Mostly clear 10 - - - -
31/06:30pm 28.3 SE 6 9 1011.1 - 0.0 - Mostly clear 10 - - - -
31/06:00pm 29.1 ESE 9 12 1010.4 R 0.0 Fine Partly cloudy 22 - - - -
31/05:30pm 30.0 ESE 9 12 1010.6 - 0.0 - Mostly clear 10 - - - -
31/05:00pm 30.3 ESE 10 13 1010.4 - 0.0 - Mostly clear 10 - - - -
31/04:30pm 30.8 ESE 10 16 1010.1 - 0.0 - Mostly clear 10 - - - -
31/04:00pm 30.8 E 11 14 1010.3 - 0.0 - Mostly clear 10 - - - -
31/03:30pm 31.1 E 9 12 1010.3 - 0.0 - Partly cloudy 10 - - - -
31/03:00pm 30.6 E 11 15 1009.9 F 0.0 Fine Partly cloudy 22 - - - -
31/02:30pm 30.4 E 11 15 1010.4 - 0.0 - Partly cloudy 10 - - - -
31/02:00pm 31.4 ENE 10 15 1010.6 - 0.0 - Partly cloudy 10 - - - -
31/01:30pm 31.1 E 10 14 1010.9 - 0.0 - Partly cloudy 10 - - - -
31/01:00pm 31.4 E 11 16 1011.3 - 0.0 - Partly cloudy 10 - - - -
31/12:30pm 31.3 E 12 16 1011.8 - 0.0 - Partly cloudy 10 - - - -
31/12:00pm 31.6 E 12 16 1012.0 F 0.0 Fine Mostly cloudy 22 - - - -
31/11:30am 30.6 E 12 17 1013.1 - 0.0 - Partly cloudy 10 - - - -
31/11:00am 30.3 E 11 16 1013.5 - 0.0 - Mostly cloudy 10 - - - -
31/10:30am 30.1 E 12 17 1013.7 - 0.0 - Mostly cloudy 10 - - - -
31/10:00am 30.8 ENE 12 17 1014.0 - 0.0 - Partly cloudy 10 - - - -
31/09:30am 29.6 E 10 15 1014.1 - 0.0 - Mostly clear 10 - - - -
31/09:00am 29.0 ESE 9 14 1013.5 R 0.0 Fine Mostly cloudy 26 - - - -
31/08:30am 27.4 E 5 7 1013.9 - 0.0 - Mostly clear 10 - - - -
31/08:00am 26.4 ESE 6 7 1013.8 - 0.0 - Mostly clear 10 - - - -
31/07:30am 25.4 E 6 7 1013.1 - 0.0 - Partly cloudy 10 - - - -
31/07:00am 24.5 SE 11 20 1013.1 - 0.0 Showers Mostly clear 10 - - - -
31/06:51am 25.7 ESE 15 20 1013.1 - 0.0 Showers Mostly clear 9 - - - -
31/06:30am 25.6 SSE 1 3 1012.4 - 0.0 - Mostly clear 10 - - - -
31/06:00am 25.2 SSE 4 5 1011.7 R 0.0 Fine Mostly cloudy 18 - - - -
31/05:30am 25.2 SSE 4 5 1011.9 - 0.0 - Partly cloudy 10 - - - -
31/05:00am 25.0 SSE 4 5 1011.6 - 0.0 - Partly cloudy 10 - - - -
31/04:30am 25.1 SSE 4 5 1011.3 - 0.0 - Partly cloudy 10 - - - -
31/04:00am 25.3 SSE 5 6 1011.2 - 0.0 - Partly cloudy 10 - - - -
31/03:30am 25.1 SSE 4 5 1011.2 - 0.0 - Partly cloudy 10 - - - -
31/03:00am 24.7 SE 4 5 1010.9 - 0.0 - Mostly clear 10 - - - -
31/02:30am 24.8 SE 3 4 1011.6 - 0.0 - - 10 - - - -
31/02:00am 24.8 SE 3 4 1011.7 - 0.0 - Partly cloudy 10 - - - -
31/01:30am 25.2 SSE 4 4 1011.9 - 0.0 - - 10 - - - -
31/01:00am 25.2 SSE 4 5 1012.2 - 0.0 - - 10 - - - -
31/12:30am 25.4 SE 5 6 1012.5 - 0.0 - - 10 - - - -
31/12:00am 25.4 SSE 5 6 1012.3 - 0.0 - - 10 - - - -
 
Date/Time
CST
Temp

°C
Wind Pressure Rain
since 9am
mm
Weather Cloud Vis
km
Sea
Height
m
Swell
Dir
 
Speed
knots
Gust
knots
hPa Trend Height
m
Period
s
Dir
30/11:30pm 25.5 SSE 4 5 1013.1 - 0.0 - - 10 - - - -
30/11:00pm 25.6 SE 4 5 1013.3 - 0.0 - - 10 - - - -
30/10:30pm 25.8 SE 4 5 1013.5 - 0.0 - - 10 - - - -
30/10:00pm 26.1 SE 5 5 1013.4 - 0.0 - Mostly clear 10 - - - -
30/09:30pm 26.1 SSE 5 6 1013.4 - 0.0 - Mostly clear 10 - - - -
30/09:00pm 26.5 SE 5 6 1012.9 F 0.0 Fine Partly cloudy 23 - - - -
30/08:30pm 26.7 SE 5 7 1012.9 - 0.0 - - 10 - - - -
30/08:00pm 27.1 SE 5 6 1012.7 - 0.0 - - 10 - - - -
30/07:30pm 27.4 SE 6 8 1012.5 - 0.0 - Mostly clear 10 - - - -
30/07:00pm 27.8 SE 7 10 1012.2 - 0.0 - Mostly clear 10 - - - -
30/06:30pm 28.1 SE 7 11 1012.1 - 0.0 - Mostly clear 10 - - - -
30/06:00pm 29.0 ESE 9 13 1011.6 R 0.0 Fine Partly cloudy 23 - - - -
30/05:30pm 29.7 ESE 11 14 1011.7 - 0.0 - Partly cloudy 10 - - - -
30/05:00pm 30.0 ESE 12 16 1011.5 - 0.0 - Partly cloudy 10 - - - -
30/04:30pm 31.0 ESE 11 17 1011.5 - 0.0 - Partly cloudy 10 - - - -
30/04:00pm 30.6 E 11 18 1011.3 - 0.0 - Partly cloudy 10 - - - -
30/03:30pm 30.9 E 12 16 1011.2 - 0.0 - Partly cloudy 10 - - - -
30/03:00pm 31.3 ESE 13 17 1010.9 R 0.0 Fine Mostly cloudy 23 - - - -
30/02:30pm 31.3 E 13 18 1011.4 - 0.0 - Partly cloudy 10 - - - -
30/02:00pm 31.0 ESE 11 15 1011.7 - 0.0 - Partly cloudy 10 - - - -
30/01:30pm 30.9 E 13 18 1012.0 - 0.0 - Partly cloudy 10 - - - -
30/01:00pm 30.8 ENE 13 17 1012.2 - 0.0 - Partly cloudy 10 - - - -
30/12:30pm 31.0 ENE 14 20 1012.6 - 0.0 - Partly cloudy 10 - - - -
30/12:00pm 30.9 E 12 16 1012.6 F 0.0 Distant precip. Mostly cloudy 26 - - - -
30/11:30am 31.2 E 12 19 1013.6 - 0.0 - Mostly cloudy 10 - - - -
30/11:00am 30.7 E 14 19 1013.9 - 0.0 - Mostly clear 10 - - - -
30/10:30am 30.4 ESE 9 14 1014.3 - 0.0 - Mostly clear 10 - - - -
30/10:00am 29.9 ESE 13 18 1014.4 - 0.0 - Mostly cloudy 10 - - - -
30/09:30am 29.9 E 13 17 1014.4 - 0.0 - Partly cloudy 10 - - - -
30/09:00am 28.8 E 9 11 1013.9 R 0.0 Fine Mostly clear 26 - - - -
30/08:30am 29.0 E 11 14 1014.0 - 0.0 - Mostly clear 10 - - - -
30/08:00am 28.4 E 7 9 1013.7 - 0.0 - Mostly clear 10 - - - -
30/07:30am 27.4 E 6 9 1013.4 - 0.0 - Mostly clear 10 - - - -
30/07:00am 25.6 E 6 11 1013.2 - 0.0 - Mostly clear 10 - - - -
30/06:30am 23.8 ESE 3 4 1012.6 - 0.0 - Mostly clear 10 - - - -
30/06:00am 24.0 ESE 3 4 1011.9 R 0.0 Fine Mostly clear 28 - - - -
30/05:30am 24.1 SE 4 5 1012.0 - 0.0 - - 10 - - - -
30/05:00am 24.0 SE 5 5 1011.6 - 0.0 - - 10 - - - -
30/04:30am 23.9 SE 5 6 1011.3 - 0.0 - - 10 - - - -
30/04:00am 24.0 SE 5 6 1011.3 - 0.0 - - 10 - - - -
30/03:30am 23.6 SE 4 5 1011.4 - 0.0 - - 10 - - - -
30/03:00am 23.7 SE 5 6 1011.1 - 0.0 - - 10 - - - -
30/02:30am 23.6 SE 4 5 1011.6 - 0.0 - - 10 - - - -
30/02:00am 24.2 SSE 4 5 1011.8 - 0.0 - - 10 - - - -
30/01:30am 24.5 SE 5 6 1012.2 - 0.0 - - 10 - - - -
30/01:00am 24.6 SE 5 6 1012.7 - 0.0 - - 10 - - - -
30/12:30am 25.1 SE 6 7 1013.2 - 0.0 - - 10 - - - -
30/12:00am 25.5 SE 6 9 1013.2 - 0.0 - - 10 - - - -
 
Date/Time
CST
Temp

°C
Wind Pressure Rain
since 9am
mm
Weather Cloud Vis
km
Sea
Height
m
Swell
Dir
 
Speed
knots
Gust
knots
hPa Trend Height
m
Period
s
Dir
29/11:30pm 25.8 ESE 5 7 1013.8 - 0.0 - Partly cloudy 10 - - - -
29/11:00pm 26.0 ESE 6 8 1013.8 - 0.0 - - 10 - - - -
29/10:30pm 26.3 ESE 6 8 1013.9 - 0.0 - - 10 - - - -
29/10:00pm 26.6 SE 7 9 1013.9 - 0.0 - Mostly clear 10 - - - -
29/09:30pm 26.7 SE 7 9 1013.8 - 0.0 - Mostly clear 10 - - - -
29/09:00pm 26.0 SE 5 6 1013.2 F 0.0 Fine Mostly clear 22 - - - -
29/08:30pm 25.8 SE 4 5 1013.4 - 0.0 - Mostly clear 10 - - - -

Other Formats:

Comma delimited format used in spreadsheet applications
http://www.bom.gov.au/fwo/IDD60701/IDD60701.94150.axf

JavaScript Object Notation format (JSON) in row-major order
http://www.bom.gov.au/fwo/IDD60701/IDD60701.94150.json